createdAt,value
2022-12-19T00:00:57.794Z,964.25
2022-12-19T00:03:57.802Z,964.31
2022-12-19T00:06:57.670Z,964.25
2022-12-19T00:09:57.267Z,964.37
2022-12-19T00:12:57.442Z,964.42
2022-12-19T00:15:57.308Z,964.46
2022-12-19T00:18:56.983Z,964.49
2022-12-19T00:21:57.944Z,964.41
2022-12-19T00:24:57.171Z,964.42
2022-12-19T00:27:57.459Z,964.43
2022-12-19T00:30:57.091Z,964.48
2022-12-19T00:33:57.373Z,964.51
2022-12-19T00:36:57.798Z,964.48
2022-12-19T00:39:57.176Z,964.35
2022-12-19T00:42:57.696Z,964.53
2022-12-19T00:45:57.212Z,964.48
2022-12-19T00:48:57.362Z,964.48
2022-12-19T00:51:57.166Z,964.56
2022-12-19T00:54:57.096Z,964.55
2022-12-19T00:57:57.693Z,964.63
2022-12-19T01:00:57.734Z,964.72
2022-12-19T01:04:27.149Z,964.5
2022-12-19T01:06:58.052Z,964.59
2022-12-19T01:09:57.348Z,964.56
2022-12-19T01:12:57.192Z,964.66
2022-12-19T01:15:57.801Z,964.6
2022-12-19T01:18:57.722Z,964.63
2022-12-19T01:21:57.417Z,964.71
2022-12-19T01:24:57.450Z,964.48
2022-12-19T01:27:56.789Z,964.42
2022-12-19T01:30:58.021Z,964.4
2022-12-19T01:33:57.697Z,964.35
2022-12-19T01:36:56.880Z,964.35
2022-12-19T01:39:57.303Z,964.17
2022-12-19T01:42:57.840Z,964.19
2022-12-19T01:45:57.148Z,964.19
2022-12-19T01:48:57.183Z,964.03
2022-12-19T01:51:58.341Z,964.02
2022-12-19T01:54:56.865Z,964.12
2022-12-19T01:57:57.517Z,964.03
2022-12-19T02:00:57.933Z,964.04
2022-12-19T02:03:57.872Z,963.95
2022-12-19T02:06:57.360Z,963.97
2022-12-19T02:09:57.897Z,963.87
2022-12-19T02:12:57.615Z,963.87
2022-12-19T02:15:57.690Z,963.95
2022-12-19T02:18:57.306Z,963.85
2022-12-19T02:21:56.688Z,963.92
2022-12-19T02:24:57.608Z,963.99
2022-12-19T02:27:57.703Z,963.99
2022-12-19T02:30:57.945Z,964.14
2022-12-19T02:33:57.143Z,964.07
2022-12-19T02:36:57.551Z,963.91
2022-12-19T02:39:57.284Z,963.78
2022-12-19T02:42:57.529Z,963.9
2022-12-19T02:45:56.914Z,963.82
2022-12-19T02:48:58.627Z,963.82
2022-12-19T02:51:56.906Z,963.91
2022-12-19T02:54:57.078Z,964.01
2022-12-19T02:57:57.964Z,963.78
2022-12-19T03:00:57.406Z,963.84
2022-12-19T03:03:57.348Z,963.66
2022-12-19T03:06:57.579Z,963.71
2022-12-19T03:09:57.992Z,963.58
2022-12-19T03:12:57.277Z,963.33
2022-12-19T03:15:57.532Z,963.42
2022-12-19T03:18:57.637Z,963.68
2022-12-19T03:21:56.717Z,963.68
2022-12-19T03:24:57.531Z,963.71
2022-12-19T03:27:57.037Z,963.9
2022-12-19T03:30:56.804Z,963.8
2022-12-19T03:33:57.556Z,963.8
2022-12-19T03:36:57.542Z,963.97
2022-12-19T03:39:57.774Z,963.99
2022-12-19T03:42:57.392Z,964.11
2022-12-19T03:45:58.102Z,964.08
2022-12-19T03:48:57.109Z,964.24
2022-12-19T03:51:59.496Z,964.19
2022-12-19T03:54:57.527Z,964.2
2022-12-19T03:57:56.942Z,964.2
2022-12-19T04:00:57.171Z,964.02
2022-12-19T04:03:57.881Z,964.03
2022-12-19T04:06:57.395Z,964.03
2022-12-19T04:09:57.229Z,963.94
2022-12-19T04:12:57.112Z,963.9
2022-12-19T04:15:57.676Z,963.95
2022-12-19T04:18:56.995Z,963.96
2022-12-19T04:21:57.583Z,964.06
2022-12-19T04:24:57.565Z,963.99
2022-12-19T04:27:57.427Z,964.17
2022-12-19T04:30:57.814Z,964.05
2022-12-19T04:33:57.471Z,964.05
2022-12-19T04:36:56.991Z,964.13
2022-12-19T04:39:57.012Z,964.29
2022-12-19T04:42:57.481Z,964.17
2022-12-19T04:45:57.813Z,964.33
2022-12-19T04:48:57.509Z,964.14
2022-12-19T04:51:57.610Z,964.14
2022-12-19T04:54:57.164Z,964.06
2022-12-19T04:57:57.158Z,964.09
2022-12-19T05:00:58.161Z,964.16
2022-12-19T05:04:02.776Z,964.06
2022-12-19T05:06:57.010Z,963.95
2022-12-19T05:09:57.688Z,964.0
2022-12-19T05:12:56.946Z,964.03
2022-12-19T05:15:57.814Z,964.04
2022-12-19T05:18:57.717Z,964.03
2022-12-19T05:21:57.441Z,964.11
2022-12-19T05:24:57.625Z,964.15
2022-12-19T05:27:57.613Z,964.22
2022-12-19T05:30:57.201Z,964.22
2022-12-19T05:33:57.543Z,964.24
2022-12-19T05:36:56.973Z,964.2
2022-12-19T05:39:57.819Z,964.12
2022-12-19T05:42:56.768Z,964.12
2022-12-19T05:45:56.932Z,964.15
2022-12-19T05:48:57.469Z,964.09
2022-12-19T05:51:56.840Z,964.07
2022-12-19T05:54:58.375Z,963.97
2022-12-19T05:57:56.902Z,963.97
2022-12-19T06:01:00.856Z,963.99
2022-12-19T06:03:57.944Z,964.03
2022-12-19T06:06:57.732Z,963.88
2022-12-19T06:09:58.871Z,963.89
2022-12-19T06:12:58.035Z,963.83
2022-12-19T06:15:58.715Z,963.89
2022-12-19T06:18:57.465Z,963.95
2022-12-19T06:21:57.958Z,964.01
2022-12-19T06:24:57.339Z,963.98
2022-12-19T06:27:56.998Z,963.94
2022-12-19T06:30:58.772Z,963.82
2022-12-19T06:33:57.879Z,963.8
2022-12-19T06:36:57.622Z,963.77
2022-12-19T06:39:57.363Z,963.69
2022-12-19T06:42:57.569Z,963.8
2022-12-19T06:45:57.598Z,963.77
2022-12-19T06:48:57.559Z,963.73
2022-12-19T06:51:57.535Z,963.72
2022-12-19T06:54:57.113Z,963.7
2022-12-19T06:57:57.921Z,963.75
2022-12-19T07:00:58.564Z,963.73
2022-12-19T07:03:58.077Z,963.65
2022-12-19T07:07:03.806Z,963.67
2022-12-19T07:09:57.367Z,963.54
2022-12-19T07:12:57.111Z,963.37
2022-12-19T07:15:57.341Z,963.41
2022-12-19T07:18:57.728Z,963.38
2022-12-19T07:21:58.279Z,963.55
2022-12-19T07:24:56.980Z,963.4
2022-12-19T07:27:58.608Z,963.47
2022-12-19T07:31:03.171Z,963.52
2022-12-19T07:33:57.743Z,963.5
2022-12-19T07:36:57.717Z,963.69
2022-12-19T07:39:57.550Z,963.64
2022-12-19T07:42:57.651Z,963.74
2022-12-19T07:45:57.202Z,963.82
2022-12-19T07:48:57.048Z,963.81
2022-12-19T07:51:57.306Z,963.83
2022-12-19T07:54:57.028Z,964.03
2022-12-19T07:57:56.827Z,963.91
2022-12-19T08:00:58.615Z,964.06
2022-12-19T08:03:57.591Z,964.1
2022-12-19T08:06:57.112Z,964.11
2022-12-19T08:09:57.335Z,964.11
2022-12-19T08:12:59.431Z,964.23
2022-12-19T08:15:56.875Z,964.2
2022-12-19T08:18:57.339Z,964.02
2022-12-19T08:21:57.079Z,964.0
2022-12-19T08:24:57.369Z,964.07
2022-12-19T08:27:57.458Z,963.95
2022-12-19T08:30:57.930Z,963.92
2022-12-19T08:33:57.559Z,964.01
2022-12-19T08:36:57.405Z,963.93
2022-12-19T08:39:57.138Z,963.83
2022-12-19T08:42:57.924Z,963.81
2022-12-19T08:45:57.798Z,963.83
2022-12-19T08:48:57.964Z,963.96
2022-12-19T08:51:57.660Z,964.08
2022-12-19T08:54:57.838Z,963.95
2022-12-19T08:57:56.921Z,963.98
2022-12-19T09:01:03.294Z,963.9
2022-12-19T09:04:12.987Z,964.02
2022-12-19T09:06:57.432Z,963.98
2022-12-19T09:09:57.084Z,964.15
2022-12-19T09:12:57.963Z,964.12
2022-12-19T09:15:57.405Z,964.11
2022-12-19T09:18:57.104Z,964.08
2022-12-19T09:21:57.403Z,964.05
2022-12-19T09:24:57.392Z,964.07
2022-12-19T09:30:57.393Z,963.95
2022-12-19T09:33:57.704Z,963.98
2022-12-19T09:36:57.103Z,963.94
2022-12-19T09:39:58.772Z,963.97
2022-12-19T09:42:58.155Z,963.92
2022-12-19T09:45:57.400Z,963.87
2022-12-19T09:48:56.993Z,963.8
2022-12-19T09:51:57.765Z,963.74
2022-12-19T09:54:57.679Z,963.71
2022-12-19T09:57:57.059Z,963.63
2022-12-19T10:01:00.166Z,963.6
2022-12-19T10:03:57.397Z,963.39
2022-12-19T10:07:18.303Z,963.37
2022-12-19T10:12:33.359Z,963.51
2022-12-19T10:12:59.595Z,963.43
2022-12-19T10:16:00.195Z,963.37
2022-12-19T10:18:57.438Z,963.46
2022-12-19T10:22:17.685Z,963.5
2022-12-19T10:25:08.727Z,963.43
2022-12-19T10:27:59.534Z,963.4
2022-12-19T10:30:57.614Z,963.42
2022-12-19T10:33:56.902Z,963.42
2022-12-19T10:37:27.082Z,963.38
2022-12-19T10:39:57.470Z,963.37
2022-12-19T10:42:57.533Z,963.45
2022-12-19T10:45:57.905Z,963.49
2022-12-19T10:48:56.882Z,963.49
2022-12-19T10:51:57.533Z,963.39
2022-12-19T10:54:57.841Z,963.44
2022-12-19T10:57:57.388Z,963.27
2022-12-19T11:00:57.721Z,963.22
2022-12-19T11:04:15.403Z,963.18
2022-12-19T11:06:57.183Z,963.02
2022-12-19T11:10:57.681Z,963.07
2022-12-19T11:16:13.099Z,963.04
2022-12-19T11:19:32.302Z,963.02
2022-12-19T11:29:19.207Z,963.06
2022-12-19T11:29:47.127Z,962.95
2022-12-19T11:30:39.084Z,962.94
2022-12-19T11:30:47.107Z,962.9
2022-12-19T11:31:50.985Z,962.9
2022-12-19T11:33:57.364Z,962.93
2022-12-19T11:36:56.799Z,963.07
2022-12-19T11:39:57.468Z,962.91
2022-12-19T11:43:33.834Z,962.84
2022-12-19T11:45:58.219Z,962.78
2022-12-19T11:48:57.881Z,962.65
2022-12-19T11:51:58.367Z,962.77
2022-12-19T11:54:57.392Z,962.72
2022-12-19T11:57:57.396Z,962.72
2022-12-19T12:00:57.188Z,962.66
2022-12-19T12:04:02.892Z,962.55
2022-12-19T12:06:58.425Z,962.53
2022-12-19T12:17:03.664Z,962.48
2022-12-19T12:25:45.815Z,962.31
2022-12-19T12:27:29.996Z,962.32
2022-12-19T12:31:21.870Z,962.29
2022-12-19T12:31:30.604Z,962.28
2022-12-19T12:31:40.352Z,962.21
2022-12-19T12:31:46.925Z,962.21
2022-12-19T12:32:03.987Z,962.3
2022-12-19T12:35:35.101Z,962.22
2022-12-19T12:39:57.801Z,962.46
2022-12-19T12:42:57.616Z,962.32
2022-12-19T12:45:57.711Z,962.38
2022-12-19T12:48:57.609Z,962.54
2022-12-19T12:51:57.846Z,962.44
2022-12-19T12:54:57.191Z,962.43
2022-12-19T12:57:57.615Z,962.36
2022-12-19T13:00:57.956Z,962.32
2022-12-19T13:03:58.178Z,962.32
2022-12-19T13:06:58.054Z,962.42
2022-12-19T13:09:57.192Z,962.22
2022-12-19T13:12:57.970Z,962.13
2022-12-19T13:15:57.285Z,962.33
2022-12-19T13:18:57.053Z,962.23
2022-12-19T13:21:57.029Z,962.35
2022-12-19T13:24:57.500Z,962.14
2022-12-19T13:27:57.226Z,962.19
2022-12-19T13:31:21.290Z,962.18
2022-12-19T13:33:57.908Z,962.18
2022-12-19T13:39:50.421Z,962.11
2022-12-19T13:43:09.665Z,962.19
2022-12-19T13:45:57.817Z,962.11
2022-12-19T13:48:58.527Z,962.16
2022-12-19T13:51:58.029Z,962.16
2022-12-19T13:54:57.307Z,962.2
2022-12-19T13:57:57.734Z,962.21
2022-12-19T14:00:57.634Z,962.27
2022-12-19T14:03:56.854Z,962.19
2022-12-19T14:06:58.050Z,962.19
2022-12-19T14:11:34.101Z,962.21
2022-12-19T14:13:59.481Z,962.28
2022-12-19T14:15:57.526Z,962.2
2022-12-19T14:18:57.916Z,962.37
2022-12-19T14:22:08.756Z,962.27
2022-12-19T14:25:27.109Z,962.31
2022-12-19T14:28:18.955Z,962.29
2022-12-19T14:30:58.301Z,962.34
2022-12-19T14:34:19.016Z,962.29
2022-12-19T14:36:57.345Z,962.18
2022-12-19T14:39:58.052Z,962.2
2022-12-19T14:43:59.598Z,962.14
2022-12-19T14:51:42.861Z,962.07
2022-12-19T14:54:17.042Z,962.07
2022-12-19T14:54:48.233Z,962.08
2022-12-19T14:56:00.427Z,962.13
2022-12-19T14:58:54.817Z,962.15
2022-12-19T15:01:09.924Z,962.13
2022-12-19T15:04:50.973Z,962.1
2022-12-19T15:07:07.862Z,962.21
2022-12-19T15:11:06.498Z,962.21
2022-12-19T15:14:51.285Z,962.22
2022-12-19T15:15:57.321Z,962.19
2022-12-19T15:18:57.961Z,962.18
2022-12-19T15:21:57.566Z,962.11
2022-12-19T15:24:57.367Z,962.09
2022-12-19T15:27:57.585Z,962.08
2022-12-19T15:31:04.753Z,961.95
2022-12-19T15:34:32.862Z,962.01
2022-12-19T15:36:57.188Z,961.92
2022-12-19T15:39:57.303Z,961.98
2022-12-19T15:42:58.269Z,962.12
2022-12-19T15:45:57.517Z,962.12
2022-12-19T15:48:58.292Z,962.16
2022-12-19T15:51:57.319Z,962.19
2022-12-19T15:54:57.086Z,962.11
2022-12-19T15:57:57.026Z,962.0
2022-12-19T16:00:57.704Z,962.06
2022-12-19T16:03:57.913Z,961.97
2022-12-19T16:06:57.465Z,961.88
2022-12-19T16:10:04.221Z,961.98
2022-12-19T16:12:57.449Z,962.02
2022-12-19T16:15:57.468Z,961.93
2022-12-19T16:18:57.561Z,961.9
2022-12-19T16:21:57.255Z,961.79
2022-12-19T16:24:57.720Z,961.77
2022-12-19T16:27:56.829Z,961.75
2022-12-19T16:30:58.054Z,961.74
2022-12-19T16:33:57.494Z,961.71
2022-12-19T16:36:57.447Z,961.68
2022-12-19T16:39:57.737Z,961.7
2022-12-19T16:42:58.060Z,961.66
2022-12-19T16:46:01.198Z,961.75
2022-12-19T16:48:57.252Z,961.72
2022-12-19T16:51:58.009Z,961.89
2022-12-19T16:54:57.978Z,961.79
2022-12-19T16:57:57.269Z,961.93
2022-12-19T17:00:59.059Z,961.92
2022-12-19T17:03:57.543Z,961.92
2022-12-19T17:06:57.220Z,961.84
2022-12-19T17:09:57.851Z,961.79
2022-12-19T17:12:57.914Z,961.74
2022-12-19T17:15:57.587Z,961.64
2022-12-19T17:18:58.447Z,961.67
2022-12-19T17:21:57.719Z,961.62
2022-12-19T17:24:57.540Z,961.69
2022-12-19T17:27:58.060Z,961.8
2022-12-19T17:30:58.381Z,961.69
2022-12-19T17:33:57.753Z,961.77
2022-12-19T17:36:57.897Z,961.81
2022-12-19T17:39:58.546Z,961.74
2022-12-19T17:42:58.472Z,961.77
2022-12-19T17:45:57.594Z,961.81
2022-12-19T17:48:57.678Z,961.85
2022-12-19T17:51:57.560Z,961.78
2022-12-19T17:54:57.473Z,961.84
2022-12-19T17:57:57.733Z,961.68
2022-12-19T18:01:32.422Z,961.74
2022-12-19T18:03:57.485Z,961.57
2022-12-19T18:06:57.165Z,961.59
2022-12-19T18:09:57.544Z,961.49
2022-12-19T18:12:57.512Z,961.63
2022-12-19T18:15:57.191Z,961.68
2022-12-19T18:18:57.662Z,961.64
2022-12-19T18:21:58.259Z,961.62
2022-12-19T18:24:58.386Z,961.77
2022-12-19T18:27:57.792Z,961.82
2022-12-19T18:30:57.481Z,961.83
2022-12-19T18:34:02.154Z,961.83
2022-12-19T18:36:58.646Z,961.81
2022-12-19T18:39:57.979Z,961.9
2022-12-19T18:42:57.729Z,961.94
2022-12-19T18:45:57.944Z,961.96
2022-12-19T18:48:57.518Z,961.77
2022-12-19T18:51:57.504Z,961.81
2022-12-19T18:54:58.201Z,961.89
2022-12-19T18:57:58.014Z,961.86
2022-12-19T19:00:59.647Z,961.85
2022-12-19T19:03:57.500Z,961.76
2022-12-19T19:06:57.367Z,961.85
2022-12-19T19:09:57.535Z,961.8
2022-12-19T19:12:57.145Z,961.69
2022-12-19T19:15:57.332Z,961.82
2022-12-19T19:18:57.281Z,961.83
2022-12-19T19:21:57.928Z,961.76
2022-12-19T19:24:57.619Z,961.73
2022-12-19T19:27:57.094Z,961.69
2022-12-19T19:30:57.208Z,961.73
2022-12-19T19:33:58.207Z,961.6
2022-12-19T19:36:57.927Z,961.43
2022-12-19T19:39:58.417Z,961.45
2022-12-19T19:42:58.161Z,961.43
2022-12-19T19:45:57.839Z,961.56
2022-12-19T19:48:57.064Z,961.59
2022-12-19T19:52:02.177Z,961.49
2022-12-19T19:54:57.024Z,961.56
2022-12-19T19:57:57.448Z,961.65
2022-12-19T20:00:57.351Z,961.62
2022-12-19T20:03:57.826Z,961.49
2022-12-19T20:06:56.717Z,961.61
2022-12-19T20:09:57.446Z,961.65
2022-12-19T20:12:57.429Z,961.69
2022-12-19T20:15:57.202Z,961.65
2022-12-19T20:18:57.658Z,961.68
2022-12-19T20:21:57.293Z,961.64
2022-12-19T20:24:58.042Z,961.73
2022-12-19T20:27:57.126Z,961.7
2022-12-19T20:30:57.840Z,961.66
2022-12-19T20:33:57.262Z,961.5
2022-12-19T20:36:57.585Z,961.54
2022-12-19T20:39:58.183Z,961.53
2022-12-19T20:42:57.131Z,961.56
2022-12-19T20:45:57.957Z,961.71
2022-12-19T20:48:57.924Z,961.67
2022-12-19T20:51:57.155Z,961.68
2022-12-19T20:54:57.374Z,961.61
2022-12-19T20:57:57.166Z,961.65
2022-12-19T21:00:57.557Z,961.75
2022-12-19T21:03:57.331Z,961.69
2022-12-19T21:06:57.420Z,961.68
2022-12-19T21:09:57.792Z,961.69
2022-12-19T21:12:57.178Z,961.61
2022-12-19T21:15:56.860Z,961.72
2022-12-19T21:18:57.648Z,961.57
2022-12-19T21:21:57.127Z,961.48
2022-12-19T21:24:57.644Z,961.62
2022-12-19T21:27:57.219Z,961.65
2022-12-19T21:30:57.455Z,961.59
2022-12-19T21:33:57.388Z,961.64
2022-12-19T21:36:57.032Z,961.67
2022-12-19T21:39:57.605Z,961.78
2022-12-19T21:42:57.524Z,961.87
2022-12-19T21:45:57.268Z,961.85
2022-12-19T21:48:57.101Z,961.87
2022-12-19T21:51:57.463Z,961.85
2022-12-19T21:54:57.029Z,961.75
2022-12-19T21:57:57.312Z,961.88
2022-12-19T22:01:01.347Z,961.84
2022-12-19T22:03:57.585Z,961.78
2022-12-19T22:06:56.958Z,961.8
2022-12-19T22:09:57.642Z,961.75
2022-12-19T22:12:57.365Z,961.74
2022-12-19T22:15:57.109Z,961.61
2022-12-19T22:18:56.847Z,961.49
2022-12-19T22:21:57.404Z,961.56
2022-12-19T22:24:57.733Z,961.61
2022-12-19T22:27:57.005Z,961.52
2022-12-19T22:30:58.186Z,961.6
2022-12-19T22:33:57.925Z,961.61
2022-12-19T22:36:57.564Z,961.62
2022-12-19T22:39:57.131Z,961.61
2022-12-19T22:42:57.696Z,961.58
2022-12-19T22:45:57.113Z,961.5
2022-12-19T22:48:57.434Z,961.53
2022-12-19T22:51:57.212Z,961.55
2022-12-19T22:54:58.128Z,961.5
2022-12-19T22:57:58.098Z,961.5
2022-12-19T23:00:58.167Z,961.66
2022-12-19T23:03:57.751Z,961.54
2022-12-19T23:06:57.025Z,961.64
2022-12-19T23:09:57.461Z,961.69
2022-12-19T23:12:56.981Z,961.67
2022-12-19T23:15:57.631Z,961.61
2022-12-19T23:18:57.096Z,961.71
2022-12-19T23:21:57.802Z,961.68
2022-12-19T23:24:56.906Z,961.76
2022-12-19T23:27:57.343Z,961.69
2022-12-19T23:30:56.794Z,961.54
2022-12-19T23:33:57.651Z,961.57
2022-12-19T23:37:12.178Z,961.55
2022-12-19T23:39:57.690Z,961.47
2022-12-19T23:42:57.151Z,961.48
2022-12-19T23:45:57.462Z,961.35
2022-12-19T23:48:57.676Z,961.37
2022-12-19T23:51:56.723Z,961.3
2022-12-19T23:54:57.460Z,961.31
2022-12-19T23:57:56.948Z,961.27
